Northern & Central Napa County

33 Stations

15 Minute Data | America/Los_Angeles
as of 9/4/26 9:32 PM PDT
Station Date Time Temp (°F) RH (%) Dew Pt (°F) Wind Spd (mph) Wind Dir (°) Wind Gust (mph) Latest Rain (In) Daily Rain (In) Daily Max Temp (°F) Daily Min Temp (°F)
Tenma (North Calistoga) 9/4/26 2130 57.5   3.5 - - - - - 0.00 0.00 80.3   9.8 52.0   3.7
Calistoga-Solari 9/4/26 2130 58.8   1.9 72   18 49.8   8.1 0.4   0.2 SSW | 197 1.4   0.5 0.00 0.00 77.4   8.7 48.7   6.7
Calistoga-North 9/4/26 2130 57.4   3.9 78   12 50.5   7.8 - - - 0.00 0.00 80.4   11.7 50.3   6.6
Twomey Calistoga 9/4/26 2130 54.2   5.9 83   8 49.1   8.3 1.9   1.0 W | 270 2.9   1.3 0.00 0.00 80.7   6.5 48.9   6.6
Paloma 9/4/26 2130 56.9   4.2 74   13 48.7   8.5 1.2   0.8 SW | 233 2.9   1.5 0.00 0.00 81.3   11.8 51.2   6.6
Calistoga (Ranch 78) 9/4/26 2130 55.4   5.0 75   14 47.6   9.7 0.5   0.2 SSW | 192 1.5   0.0 0.00 0.00 79.6   8.1 52.2   3.7
Diamond Mtn (Schramsberg) 9/4/26 2130 58.3   0.3 68   32 47.7   10.4 - - - 0.00 0.01 75.8   6.1 51.2   4.1
Diamond Mtn (McEachran) 9/4/26 2130 59.4   0.4 67   24 48.6   8.6 - - - - - 75.9   6.8 51.7   4.6
Deer Park 9/4/26 2130 59.7   0.1 63   26 47.1   9.1 2.2   0.2 N | 351 3.3   1.3 0.00 0.00 77.8   11.1 54.3   2.5
St. Helena-North 9/4/26 2130 60.5   1.1 63   19 47.8   8.2 2.2   1.9 WNW | 294 4.8   3.5 0.00 0.00 80.3   7.7 51.7   4.3
St. Helena (NVV Office) 9/4/26 2130 62.9   0.6 - - 0.7   0.7 W | 281 4.8   3.8 0.00 0.00 80.0   6.8 49.0   8.5
Tiara Fria (East St. Helena) 9/4/26 2130 59.5   2.5 68   21 48.9   9.9 0.9   0.5 ENE | 74 2.3   1.1 0.00 0.00 78.9   8.5 49.2   7.6
Prisoner Winery 9/4/26 2130 58.3   3.0 73   17 49.6   8.6 0.0   0.6 N | 0 0.0   1.8 0.00 0.00 80.0   6.6 48.2   4.9
Rutherford Hill Estate 9/4/26 2130 60.1   0.1 67   24 49.1   8.4 1.1   0.9 NE | 47 2.0   0.9 0.00 0.01 81.3   11.8 51.5   4.9
Rutherford-North (Mee Ln) 9/4/26 2130 55.9   4.4 78   11 49.0   8.0 0.2   1.2 ENE | 65 1.8   1.1 0.00 0.00 81.1   7.7 44.0   6.9
Rutherford (STS) 9/4/26 2130 54.2   6.8 85   3 49.9   7.7 0.1   1.0 ESE | 110 1.2   1.5 0.00 0.01 83.0   7.8 45.6   5.6
Silver Oak OV 9/4/26 2130 61.0   0.8 67   24 50.0   9.1 2.5   1.5 ESE | 122 3.9   2.1 0.00 0.01 79.6   8.7 50.2   0.9
Oakville-NE (Ranch 88) 9/4/26 2130 56.7   4.8 71   21 47.6   11.8 0.0   0.0 N | 0 0.0   0.0 0.00 0.01 80.9   9.6 48.9   1.0
Crossroads Ranch 9/4/26 2130 59.5   2.4 71   21 50.0   9.4 2.2   1.4 SE | 138 3.6   1.3 0.00 0.00 80.0   9.4 51.4   0.6
Oakville 9/4/26 2130 58.2   3.1 73   18 49.5   9.2 1.6   1.0 SE | 133 3.3   1.7 0.00 0.00 80.2   9.1 51.3   1.0
To Kalon Remote (TKKE) 9/4/26 2130 55.8   6.3 - - - - - - - 80.5   5.8 47.6   7.3
To Kalon 9/4/26 2130 58.8   2.9 72   18 50.0   8.9 0.8   0.1 NW | 317 1.6   0.2 0.00 0.00 80.1   8.1 48.6   7.9
To Kalon Remote (TKN5) 9/4/26 2130 60.5   1.7 - - - - - - - 80.3   7.4 48.0   8.8
Jump Rock 9/4/26 2130 51.3   5.1 91   8 48.9   7.2 1.3   1.1 ENE | 63 2.3   0.9 0.00 0.01 73.6   11.3 46.0   1.9
State Lane Ranch 9/4/26 2130 56.2   5.3 80   16 50.2   10.1 1.4   0.7 N | 350 2.6   0.7 0.00 0.01 79.7   10.8 52.5   2.1
Yountville (Ranch 67) 9/4/26 2130 55.4   5.3 76   17 47.8   10.6 0.2   0.1 NNE | 22 1.5   0.1 0.00 0.01 78.2   9.8 52.7   1.9
Borreo (Soda Canyon) 9/4/26 2115 54.9   4.2 85   8 50.6   6.7 0.7   0.4 N | 357 2.1   0.4 0.00 0.00 76.1   12.2 50.0   3.6
Wappo Hill Floor 9/4/26 2130 59.6   0.0 73   27 51.0   8.6 0.7   0.6 S | 185 2.4   0.9 0.00 0.01 79.9   10.7 52.1   3.6
Wappo Hill 9/4/26 2130 61.5   0.2 69   21 51.3   7.1 2.2   2.0 SE | 137 4.8   3.0 0.00 0.00 79.3   10.3 54.3   2.0
Stags Leap Dist (Chimney Rock) 9/4/26 2130 61.3   0.2 74   23 53.0   7.6 0.7   0.6 ESE | 120 2.6   1.5 0.00 0.00 79.7   11.0 55.6   0.4
Stags Leap Dist (Silverado Vineyards) 9/4/26 2130 55.8   4.8 77   15 48.6   9.7 0.3   0.1 NNW | 329 1.5   0.3 0.00 0.00 79.3   11.4 53.2   2.1
Yountville-SE (Ranch 85) 9/4/26 2130 61.4   0.1 71   29 52.1   9.2 1.3   1.3 SSE | 166 3.9   3.9 0.00 0.01 78.9   10.3 54.8   0.2
Yountville-South (Ranch 87) 9/4/26 2130 58.3   2.9 79   17 51.8   8.4 0.2   0.6 W | 270 1.1   1.9 0.00 0.00 78.9   9.6 54.1   0.2
Max     62.9 91 53.0 2.5 - 4.8 0.00 0.01 83.0 55.6
Avg     58.0 74 49.5 1.0 - 2.5 0.00 - - -
Min     51.3 63 47.1 0.0 - 0.0 0.00 0.00 73.6 44.0